Latest Weather Observations for Point Fawcett

IDD60901

Issued at 8:41 pm CST Tuesday 5 May 2015 (issued every 10 minutes, with the page automatically refreshed every 10 minutes)

About weather observations | Map of Darwin area stations | Latest observations for Darwin area | Other Formats
Station Details ID: 200731 Name: POINT FAWCETT Lat: -11.76 Lon: 130.03 Height: 6.5 m
Data from the previous 72 hours. | See also: Recent months at Point Fawcett
Date/Time
CST
Tmp

°C
App
Tmp
°C
Dew
Point
°C
Rel
Hum
%
Delta-T

°C
Wind Press
QNH
hPa
Press
MSL
hPa
Rain
since
9 am
mm
Dir
 
Spd
km/h
Gust
km/h
Spd
kts
Gust
kts
05/08:30pm 21.2 24.6 19.3 89 1.2 CALM 0 0 0 0 1010.1 - -
05/08:00pm 21.6 25.1 19.5 88 1.3 CALM 0 0 0 0 1009.7 - -
05/07:30pm 22.2 24.6 19.7 86 1.6 S 6 7 3 4 1009.4 - -
05/07:00pm 23.2 27.0 20.2 83 1.9 CALM 0 0 0 0 1009.2 - -
05/06:30pm 24.9 27.9 20.8 78 2.7 S 6 7 3 4 1009.0 - -
05/06:00pm 26.8 29.9 21.1 71 3.8 SSW 6 7 3 4 1008.8 1008.7 -
05/05:30pm 28.4 31.2 20.9 64 5.0 W 7 9 4 5 1008.6 - -
05/05:00pm 29.3 32.2 21.0 61 5.5 W 7 11 4 6 1008.5 - -
05/04:30pm 29.9 32.2 20.7 57 6.1 WSW 9 11 5 6 1008.3 - -
05/04:00pm 30.0 32.8 20.8 57 6.1 W 7 11 4 6 1008.5 - -
05/03:30pm 30.5 33.2 21.3 58 6.2 W 9 13 5 7 1008.7 - -
05/03:00pm 30.9 33.8 21.7 58 6.2 W 9 13 5 7 1009.0 1008.9 -
05/02:30pm 30.9 33.6 21.4 57 6.4 W 9 13 5 7 1009.5 - -
05/02:00pm 30.9 33.1 20.5 54 6.9 WSW 9 15 5 8 1009.9 - -
05/01:30pm 31.4 33.8 21.6 56 6.6 WSW 11 15 6 8 1010.2 - -
05/01:00pm 31.0 33.4 21.5 57 6.4 W 11 15 6 8 1010.7 - -
05/12:30pm 30.5 33.0 21.8 59 5.9 WNW 11 13 6 7 1011.1 - -
05/12:00pm 30.6 33.9 21.9 59 5.9 WNW 7 9 4 5 1011.4 1011.3 -
05/11:30am 30.2 33.2 21.3 59 6.0 NW 7 11 4 6 1011.8 - -
05/11:00am 29.9 32.8 21.0 59 5.9 NNW 7 9 4 5 1011.9 - -
05/10:30am 29.4 32.3 21.1 61 5.5 N 7 9 4 5 1012.1 - -
05/10:00am 28.8 32.1 21.8 66 4.7 N 7 9 4 5 1012.3 - -
05/09:30am 26.8 32.8 24.8 89 1.4 E 2 6 1 3 1012.1 - -
05/09:00am 25.1 31.2 24.4 96 0.5 CALM 0 0 0 0 1012.0 1011.9 -
05/08:30am 24.1 28.6 23.6 97 0.3 ESE 6 7 3 4 1011.7 - -
05/08:00am 21.0 23.6 20.5 97 0.3 ESE 7 7 4 4 1011.4 - -
05/07:30am 19.4 21.2 18.7 96 0.4 SE 7 7 4 4 1011.1 - -
05/07:00am 18.7 20.2 18.0 96 0.4 ESE 7 9 4 5 1010.6 - -
05/06:30am 18.8 20.5 18.1 96 0.4 SE 6 7 3 4 1010.4 - -
05/06:00am 18.7 20.4 18.0 96 0.4 SSE 6 7 3 4 1010.4 1010.3 -
05/05:30am 18.7 20.2 18.0 96 0.4 S 7 9 4 5 1010.4 - -
05/05:00am 18.8 20.3 18.1 96 0.4 S 7 9 4 5 1010.4 - -
05/04:30am 18.6 20.0 17.9 96 0.4 S 7 9 4 5 1010.3 - -
05/04:00am 18.6 19.6 17.8 95 0.5 S 9 9 5 5 1010.4 - -
05/03:30am 18.7 19.8 17.9 95 0.5 S 9 9 5 5 1010.5 - -
05/03:00am 18.8 20.3 18.0 95 0.5 S 7 9 4 5 1010.6 1010.5 -
05/02:30am 18.8 20.3 18.0 95 0.5 SSE 7 7 4 4 1010.8 - -
05/02:00am 18.9 20.3 17.9 94 0.6 S 7 7 4 4 1011.0 - -
05/01:30am 19.0 20.5 18.0 94 0.6 S 7 7 4 4 1011.1 - -
05/01:00am 19.2 20.8 18.2 94 0.6 SSE 7 7 4 4 1011.4 - -
05/12:30am 19.5 21.2 18.5 94 0.6 S 7 9 4 5 1011.5 - -
05/12:00am 19.6 21.3 18.4 93 0.7 S 7 7 4 4 1011.8 1011.7 -
 
Date/Time
CST
Tmp

°C
App
Tmp
°C
Dew
Point
°C
Rel
Hum
%
Delta-T

°C
Wind Press
QNH
hPa
Press
MSL
hPa
Rain
since
9 am
mm
Dir
 
Spd
km/h
Gust
km/h
Spd
kts
Gust
kts
04/11:30pm 19.7 21.4 18.4 92 0.8 SE 7 7 4 4 1011.9 - -
04/11:00pm 20.0 22.7 18.7 92 0.8 E 2 7 1 4 1012.0 - -
04/10:30pm 20.2 22.0 18.7 91 0.9 E 7 9 4 5 1012.1 - -
04/10:00pm 20.5 23.3 18.8 90 1.1 SSE 2 6 1 3 1012.1 - -
04/09:30pm 20.8 22.7 18.9 89 1.2 SE 7 7 4 4 1012.2 - -
04/09:00pm 21.2 23.2 19.1 88 1.3 SSE 7 7 4 4 1011.8 1011.7 -
04/08:30pm 21.5 23.5 19.2 87 1.5 SSE 7 7 4 4 1011.5 - -
04/08:00pm 21.9 24.1 19.3 85 1.7 SSE 6 7 3 4 1011.0 - -
04/07:30pm 22.5 24.7 19.5 83 1.9 SSE 7 7 4 4 1010.6 - -
04/07:00pm 23.6 25.8 19.5 78 2.6 SSE 7 9 4 5 1010.4 - -
04/06:30pm 25.8 28.4 20.1 71 3.7 SSE 6 7 3 4 1010.3 - -
04/06:00pm 27.9 30.4 20.2 63 5.1 S 7 9 4 5 1010.0 1009.9 -
04/05:30pm 29.7 31.9 19.7 55 6.5 S 7 9 4 5 1009.8 - -
04/05:00pm 29.4 31.4 19.1 54 6.7 S 7 11 4 6 1009.6 - -
04/04:30pm 29.6 31.5 19.0 53 6.9 S 7 13 4 7 1009.7 - -
04/04:00pm 30.5 31.9 19.5 51 7.2 SW 11 17 6 9 1009.9 - -
04/03:30pm 31.6 33.0 19.6 49 7.9 SW 11 17 6 9 1010.0 - -
04/03:00pm 31.4 32.6 19.1 48 8.0 SW 11 19 6 10 1010.3 1010.2 -
04/02:30pm 31.3 32.2 19.3 49 7.8 SW 13 20 7 11 1010.6 - -
04/02:00pm 31.5 32.7 19.8 49 7.7 SSW 13 19 7 10 1011.1 - -
04/01:30pm 31.5 32.5 19.5 49 7.9 SSW 13 22 7 12 1011.4 - -
04/01:00pm 31.4 32.8 20.4 52 7.3 SW 13 20 7 11 1011.8 - -
04/12:30pm 30.7 31.8 19.7 52 7.2 SW 13 20 7 11 1012.2 - -
04/12:00pm 31.3 33.1 20.3 52 7.3 SW 11 17 6 9 1012.6 1012.5 -
04/11:30am 30.4 32.8 20.0 53 6.8 SW 7 13 4 7 1013.0 - -
04/11:00am 30.3 33.6 20.8 56 6.3 SE 4 9 2 5 1013.3 - -
04/10:30am 28.8 31.8 20.8 62 5.3 E 6 7 3 4 1013.5 - -
04/10:00am 26.7 30.7 22.1 76 3.1 E 4 7 2 4 1013.5 - -
04/09:30am 25.2 30.5 24.3 95 0.6 ESE 4 6 2 3 1013.4 - -
04/09:00am 23.9 28.3 23.4 97 0.3 ESE 6 7 3 4 1013.2 1013.1 -
04/08:30am 22.2 25.4 21.7 97 0.3 ESE 7 7 4 4 1013.0 - -
04/08:00am 20.0 22.2 19.5 97 0.3 SE 7 9 4 5 1012.7 - -
04/07:30am 18.7 20.3 18.2 97 0.3 SE 7 9 4 5 1012.3 - -
04/07:00am 18.1 19.4 17.5 96 0.4 SE 7 9 4 5 1012.0 - -
04/06:30am 18.1 19.0 17.5 96 0.4 SSE 9 11 5 6 1011.5 - -
04/06:00am 17.9 19.1 17.3 96 0.4 SSE 7 9 4 5 1011.1 - -
04/05:30am 17.9 19.3 17.3 96 0.4 S 6 7 3 4 1010.9 - -
04/05:00am 17.9 19.3 17.3 96 0.4 S 6 7 3 4 1010.9 - -
04/04:30am 17.8 19.1 17.2 96 0.4 S 6 7 3 4 1010.8 - -
04/04:00am 17.8 19.1 17.2 96 0.4 SSW 6 7 3 4 1010.9 - -
04/03:30am 17.9 19.1 17.3 96 0.4 S 7 9 4 5 1010.9 - -
04/03:00am 17.9 19.0 17.1 95 0.5 SE 7 9 4 5 1010.9 1010.8 -
04/02:30am 17.9 19.0 17.1 95 0.5 SE 7 9 4 5 1011.0 - -
04/02:00am 17.9 19.0 17.1 95 0.5 SE 7 7 4 4 1011.1 - -
04/01:30am 18.0 19.1 17.2 95 0.5 SE 7 9 4 5 1011.4 - -
04/01:00am 17.9 18.6 17.1 95 0.5 SE 9 9 5 5 1011.7 - -
04/12:30am 18.0 18.7 17.0 94 0.6 SSE 9 11 5 6 1012.0 - -
04/12:00am 18.1 18.8 17.1 94 0.6 SSE 9 9 5 5 1012.1 1012.0 -
 
Date/Time
CST
Tmp

°C
App
Tmp
°C
Dew
Point
°C
Rel
Hum
%
Delta-T

°C
Wind Press
QNH
hPa
Press
MSL
hPa
Rain
since
9 am
mm
Dir
 
Spd
km/h
Gust
km/h
Spd
kts
Gust
kts
03/11:30pm 18.1 20.1 16.9 93 0.7 E 2 6 1 3 1012.1 - -
03/11:00pm 18.1 19.1 16.9 93 0.7 E 7 9 4 5 1012.2 - -
03/10:30pm 18.2 19.2 16.9 92 0.8 ENE 7 7 4 4 1012.3 - -
03/10:00pm 18.4 19.4 16.9 91 0.9 ENE 7 7 4 4 1012.4 - -
03/09:30pm 18.7 19.5 17.2 91 0.9 E 9 9 5 5 1012.5 - -
03/09:00pm 19.1 20.5 17.4 90 1.0 ENE 6 6 3 3 1012.2 1012.1 -
03/08:30pm 19.7 21.3 17.8 89 1.2 SE 6 7 3 4 1011.8 - -
03/08:00pm 20.4 22.0 18.2 87 1.4 SSE 7 9 4 5 1011.3 - -
03/07:30pm 21.0 22.5 18.0 83 1.9 SSE 7 9 4 5 1011.1 - -
03/07:00pm 22.6 24.3 18.4 77 2.6 SSE 7 7 4 4 1010.8 - -
03/06:30pm 25.0 27.0 18.7 68 4.0 S 6 7 3 4 1010.5 - -
03/06:00pm 28.3 31.2 20.6 63 5.1 S 6 7 3 4 1010.5 1010.4 -
03/05:30pm 28.9 30.9 19.2 55 6.3 S 7 9 4 5 1010.4 - -
03/05:00pm 29.7 30.8 18.8 52 7.0 S 11 17 6 9 1010.4 - -
03/04:30pm 30.1 31.7 19.2 52 7.1 S 9 13 5 7 1010.4 - -
03/04:00pm 30.3 31.3 18.7 50 7.5 S 11 17 6 9 1010.4 - -
03/03:30pm 31.1 32.8 19.4 49 7.7 S 9 15 5 8 1010.4 - -
03/03:00pm 30.9 32.5 19.9 52 7.2 SSE 11 17 6 9 1010.6 1010.5 -
03/02:30pm 30.8 32.0 19.8 52 7.2 S 13 20 7 11 1010.9 - -
03/02:00pm 31.0 32.6 20.0 52 7.3 S 11 17 6 9 1011.3 - -
03/01:30pm 31.3 32.7 19.6 49 7.7 S 11 19 6 10 1011.6 - -
03/01:00pm 31.8 33.9 20.1 50 7.7 S 9 17 5 9 1012.0 - -
03/12:30pm 31.5 33.4 19.8 49 7.7 S 9 15 5 8 1012.5 - -
03/12:00pm 30.7 31.9 19.1 50 7.6 S 11 17 6 9 1013.0 1012.9 -
03/11:30am 30.7 33.3 21.2 57 6.4 SSE 9 17 5 9 1013.5 - -
03/11:00am 30.8 33.5 21.3 57 6.4 SE 9 13 5 7 1013.6 - -
03/10:30am 30.3 33.8 21.9 60 5.7 E 6 13 3 7 1013.9 - -
03/10:00am 29.3 31.9 20.5 59 5.8 ENE 7 11 4 6 1014.0 - -
03/09:30am 27.5 29.4 19.8 63 5.0 E 9 13 5 7 1014.0 - -
03/09:00am 25.8 28.2 20.8 74 3.3 E 9 13 5 7 1013.8 1013.7 -
03/08:30am 22.6 25.9 21.9 96 0.5 ESE 7 11 4 6 1013.6 - -
03/08:00am 19.8 21.5 19.3 97 0.3 ESE 9 13 5 7 1013.5 - -
03/07:30am 17.5 18.1 16.9 96 0.4 E 9 11 5 6 1013.2 - -
03/07:00am 16.5 16.8 15.9 96 0.4 ESE 9 11 5 6 1012.6 - -
03/06:30am 16.2 16.3 15.6 96 0.3 E 9 9 5 5 1012.4 - -
03/06:00am 16.2 16.3 15.6 96 0.4 ESE 9 9 5 5 1012.2 1012.1 -
03/05:30am 16.3 16.8 15.5 95 0.5 SE 7 9 4 5 1012.1 - -
03/05:00am 16.5 16.7 15.7 95 0.5 ESE 9 9 5 5 1011.9 - -
03/04:30am 16.7 17.0 15.9 95 0.5 ESE 9 9 5 5 1011.8 - -
03/04:00am 16.7 17.3 15.9 95 0.5 ESE 7 9 4 5 1011.6 - -
03/03:30am 16.7 17.3 15.9 95 0.5 SE 7 9 4 5 1011.7 - -
03/03:00am 16.7 16.9 15.7 94 0.6 SE 9 9 5 5 1011.8 1011.7 -
03/02:30am 16.7 16.9 15.7 94 0.6 SE 9 11 5 6 1011.9 - -
03/02:00am 17.0 16.9 15.9 93 0.6 SSE 11 13 6 7 1012.1 - -
03/01:30am 16.9 17.0 15.6 92 0.8 SE 9 11 5 6 1012.1 - -
03/01:00am 16.9 17.0 15.4 91 0.9 E 9 9 5 5 1012.4 - -
03/12:30am 17.4 17.5 15.6 89 1.1 E 9 9 5 5 1012.6 - -
03/12:00am 18.1 18.4 15.9 87 1.3 ENE 9 11 5 6 1012.6 1012.5 -
 
Date/Time
CST
Tmp

°C
App
Tmp
°C
Dew
Point
°C
Rel
Hum
%
Delta-T

°C
Wind Press
QNH
hPa
Press
MSL
hPa
Rain
since
9 am
mm
Dir
 
Spd
km/h
Gust
km/h
Spd
kts
Gust
kts
02/11:30pm 18.5 18.4 16.1 86 1.4 E 11 13 6 7 1012.6 - -
02/11:00pm 19.1 19.2 16.5 85 1.6 E 11 13 6 7 1012.5 - -
02/10:30pm 18.6 18.7 16.6 88 1.2 E 11 13 6 7 1012.5 - -
02/10:00pm 18.7 18.9 16.8 89 1.1 ESE 11 13 6 7 1012.4 - -
02/09:30pm 18.8 19.1 17.1 90 1.0 ESE 11 15 6 8 1012.4 - -
02/09:00pm 19.2 20.0 17.2 88 1.2 E 9 11 5 6 1012.0 1011.9 -

Latest Capital City Observations: Canberra | Sydney | Melbourne | Brisbane | Adelaide | Perth | Hobart | Darwin

Other Formats:

Comma delimited format used in spreadsheet applications
http://www.bom.gov.au/fwo/IDD60901/IDD60901.94122.axf

JavaScript Object Notation format (JSON) in row-major order
http://www.bom.gov.au/fwo/IDD60901/IDD60901.94122.json